Aérodrome :
LOGIN :

S'inscrire | Disclaimer

   EN    FR    IT 

 










Légende :    VFR   VFR Marginal   IFR   IFR Intensif   IFR Très Intensif
Visi : 
Plafond : 
>= 8 km
>= 3000ft
5 à 8 km
1000 à 3000 ft
1500m à 5 km
500 à 1000 ft
800 à 1500m
200 à 500 ft
< 800m
< 200 ft
Symboles :   Orages  Brouillard  Fortes neiges  Fortes précipitations  Vent > 20 kt
SIGMETs :   Divers  Orages  Givrage  Turbulence  Onde Orograph.  Cendres Volcan.






- Altitude de l'aérodrome : 610 ft
- Code IATA : VXO


ESMX - Växjö Kronoberg

DERNIER METAR :
  • 180620Z 00000KT 0150 R01/0550N R19/0450N FG VV002 09/09 Q1010

METARs EXPIRÉS :
  • 180550Z 00000KT 0200 R01/0600N R19/0550N FG VV001 09/09 Q1009
  • 180520Z VRB02KT 0200 R01/0700N R19/0750N FG VV002 09/09 Q1009
  • 180450Z 00000KT 0050 R01/0500N R19/0250N FG VV001 08/08 Q1009
  • 180420Z 00000KT 0100 R01/0300N R19/0325N FG VV001 08/08 Q1010
  • 180350Z AUTO VRB02KT 0250 R01/0800N R19/0750N FG VV001 08/08 Q1010

TAF TAF ESMX
Valide du 18 à 06h jusqu'au 18 à 15h UTC


180530Z 1806/1815 16003KT 0100 FG VV002
TEMPO 1807/1812 5000 RADZ BKN005
PROB40 1812/1815 3000 BR BKN005



MET'MAP, la Météo Aéronautique d'un coup d'oeil ! - Copyright ORBIFLY Décembre 2007 - Disclaimer

ORBIFLY MET'MAP TEAM :

Programmation & Développement : Alexandra Zaïnal
Conception & Développement : Baudouin d'Aumeries
Co-Programmation & Développement : Marc-Olivier Méhu
Soutien technique & logistique : Manuel Goepfert

Contact : metmap@orbifly.com




SOURCES & CREDITS :

   NOAA